createdAt,value
2022-12-15T00:00:16.001Z,12.07
2022-12-15T00:03:41.586Z,10.00
2022-12-15T00:07:07.779Z,9.20
2022-12-15T00:10:34.024Z,12.60
2022-12-15T00:13:59.721Z,11.63
2022-12-15T00:17:26.980Z,10.80
2022-12-15T00:20:52.675Z,10.73
2022-12-15T00:24:18.682Z,11.93
2022-12-15T00:27:44.261Z,10.03
2022-12-15T00:31:10.335Z,10.93
2022-12-15T00:34:37.585Z,10.23
2022-12-15T00:38:03.461Z,10.30
2022-12-15T00:41:13.539Z,11.87
2022-12-15T00:44:23.207Z,11.23
2022-12-15T00:47:34.508Z,10.70
2022-12-15T00:50:54.358Z,10.97
2022-12-15T00:54:20.332Z,12.17
2022-12-15T00:57:46.252Z,9.47
2022-12-15T01:01:11.913Z,8.67
2022-12-15T01:04:37.533Z,11.03
2022-12-15T01:08:04.454Z,10.40
2022-12-15T01:11:30.268Z,9.77
2022-12-15T01:14:56.270Z,12.70
2022-12-15T01:18:22.160Z,13.87
2022-12-15T01:21:32.978Z,13.10
2022-12-15T01:24:42.649Z,15.80
2022-12-15T01:27:52.012Z,15.40
2022-12-15T01:31:00.277Z,13.97
2022-12-15T01:34:08.739Z,16.00
2022-12-15T01:37:17.267Z,13.90
2022-12-15T01:40:44.310Z,14.20
2022-12-15T01:43:52.530Z,17.03
2022-12-15T01:47:00.780Z,17.10
2022-12-15T01:50:15.561Z,16.20
2022-12-15T01:53:24.774Z,16.63
2022-12-15T01:56:40.243Z,16.03
2022-12-15T01:59:53.620Z,16.47
2022-12-15T02:03:04.822Z,19.57
2022-12-15T02:06:15.180Z,18.00
2022-12-15T02:09:28.701Z,19.70
2022-12-15T02:12:46.620Z,18.40
2022-12-15T02:16:03.905Z,17.30
2022-12-15T02:19:54.316Z,19.30
2022-12-15T02:23:35.613Z,15.83
2022-12-15T02:27:16.663Z,18.07
2022-12-15T02:30:40.295Z,15.03
2022-12-15T02:33:55.865Z,17.03
2022-12-15T02:37:11.475Z,20.60
2022-12-15T02:40:20.042Z,16.67
2022-12-15T02:43:31.409Z,15.60
2022-12-15T02:47:04.833Z,18.87
2022-12-15T02:50:49.977Z,18.90
2022-12-15T02:54:34.242Z,17.80
2022-12-15T02:57:59.126Z,19.43
2022-12-15T03:01:15.966Z,18.30
2022-12-15T03:04:28.506Z,16.90
2022-12-15T03:07:36.777Z,16.30
2022-12-15T03:10:45.108Z,18.23
2022-12-15T03:13:54.951Z,19.97
2022-12-15T03:17:04.107Z,22.73
2022-12-15T03:20:14.204Z,18.70
2022-12-15T03:23:23.564Z,21.60
2022-12-15T03:26:31.952Z,21.47
2022-12-15T03:29:40.256Z,21.97
2022-12-15T03:32:48.757Z,20.57
2022-12-15T03:35:58.520Z,19.63
2022-12-15T03:39:07.118Z,22.50
2022-12-15T03:42:35.359Z,17.27
2022-12-15T03:45:43.787Z,18.87
2022-12-15T03:48:52.226Z,19.77
2022-12-15T03:52:01.909Z,22.57
2022-12-15T03:55:12.801Z,18.33
2022-12-15T03:58:21.102Z,20.17
2022-12-15T04:01:33.052Z,18.50
2022-12-15T04:04:41.422Z,20.30
2022-12-15T04:07:51.286Z,17.83
2022-12-15T04:10:59.748Z,18.17
2022-12-15T04:14:08.138Z,15.93
2022-12-15T04:17:17.635Z,19.00
2022-12-15T04:20:26.532Z,18.70
2022-12-15T04:23:36.082Z,20.63
2022-12-15T04:27:01.985Z,20.37
2022-12-15T04:30:30.123Z,19.30
2022-12-15T04:33:59.878Z,20.03
2022-12-15T04:37:30.057Z,18.57
2022-12-15T04:40:57.466Z,20.33
2022-12-15T04:44:24.216Z,22.73
2022-12-15T04:47:50.099Z,21.80
2022-12-15T04:51:16.053Z,24.97
2022-12-15T04:54:41.887Z,19.23
2022-12-15T04:58:09.246Z,20.50
2022-12-15T05:01:35.601Z,20.20
2022-12-15T05:05:01.898Z,22.00
2022-12-15T05:08:27.901Z,20.53
2022-12-15T05:11:53.474Z,19.43
2022-12-15T05:15:20.722Z,19.40
2022-12-15T05:18:46.645Z,19.60
2022-12-15T05:22:12.501Z,21.07
2022-12-15T05:25:38.296Z,21.00
2022-12-15T05:29:04.169Z,16.60
2022-12-15T05:32:14.269Z,33.47
2022-12-15T05:35:22.708Z,22.67
2022-12-15T05:38:31.254Z,20.20
2022-12-15T05:41:42.242Z,23.53
2022-12-15T05:44:50.435Z,22.37
2022-12-15T05:48:00.117Z,22.77
2022-12-15T05:51:11.072Z,20.50
2022-12-15T05:54:21.019Z,18.90
2022-12-15T05:57:29.288Z,19.63
2022-12-15T06:00:39.143Z,20.23
2022-12-15T06:03:49.171Z,20.00
2022-12-15T06:06:57.467Z,19.50
2022-12-15T06:10:06.794Z,20.90
2022-12-15T06:13:15.190Z,22.27
2022-12-15T06:16:30.079Z,21.27
2022-12-15T06:19:39.785Z,20.80
2022-12-15T06:22:50.372Z,24.17
2022-12-15T06:25:58.626Z,23.87
2022-12-15T06:29:10.560Z,20.80
2022-12-15T06:32:18.737Z,21.27
2022-12-15T06:35:28.372Z,27.10
2022-12-15T06:38:37.924Z,36.97
2022-12-15T06:41:46.588Z,33.30
2022-12-15T06:44:54.787Z,24.80
2022-12-15T06:48:03.264Z,23.17
2022-12-15T06:51:17.166Z,18.90
2022-12-15T06:54:25.887Z,22.87
2022-12-15T06:57:34.212Z,23.27
2022-12-15T07:00:45.498Z,23.87
2022-12-15T07:03:55.291Z,23.40
2022-12-15T07:07:05.131Z,24.73
2022-12-15T07:10:14.087Z,22.47
2022-12-15T07:13:22.421Z,22.93
2022-12-15T07:16:31.607Z,23.53
2022-12-15T07:19:40.196Z,27.03
2022-12-15T07:22:53.453Z,23.53
2022-12-15T07:26:11.288Z,23.50
2022-12-15T07:29:23.501Z,22.43
2022-12-15T07:32:32.007Z,28.03
2022-12-15T07:35:40.296Z,27.47
2022-12-15T07:38:51.257Z,29.57
2022-12-15T07:41:59.933Z,29.83
2022-12-15T07:45:10.948Z,30.53
2022-12-15T07:48:19.846Z,27.87
2022-12-15T07:51:28.856Z,30.20
2022-12-15T07:54:38.479Z,29.90
2022-12-15T07:57:48.729Z,34.40
2022-12-15T08:01:02.011Z,30.27
2022-12-15T08:04:11.511Z,30.07
2022-12-15T08:07:20.418Z,30.17
2022-12-15T08:10:31.002Z,34.20
2022-12-15T08:17:09.023Z,32.03
2022-12-15T08:20:17.499Z,25.87
2022-12-15T08:23:26.021Z,30.60
2022-12-15T08:26:37.860Z,31.03
2022-12-15T08:29:51.011Z,30.17
2022-12-15T08:33:00.027Z,26.73
2022-12-15T08:36:12.927Z,25.67
2022-12-15T08:39:21.392Z,26.60
2022-12-15T08:42:34.885Z,30.07
2022-12-15T08:45:43.438Z,26.23
2022-12-15T08:48:52.835Z,27.83
2022-12-15T08:52:01.286Z,27.80
2022-12-15T08:55:13.939Z,29.97
2022-12-15T08:58:25.384Z,28.93
2022-12-15T09:01:39.251Z,30.30
2022-12-15T09:04:47.955Z,27.60
2022-12-15T09:08:04.631Z,28.40
2022-12-15T09:11:17.959Z,28.77
2022-12-15T09:14:29.641Z,28.67
2022-12-15T09:17:37.987Z,28.30
2022-12-15T09:20:46.343Z,26.03
2022-12-15T09:23:58.355Z,23.67
2022-12-15T09:27:06.533Z,29.30
2022-12-15T09:30:16.566Z,29.80
2022-12-15T09:33:24.780Z,26.90
2022-12-15T09:36:34.541Z,25.93
2022-12-15T09:39:42.816Z,26.37
2022-12-15T09:43:25.762Z,27.37
2022-12-15T09:46:50.392Z,28.50
2022-12-15T09:50:03.043Z,23.30
2022-12-15T09:53:52.551Z,25.50
2022-12-15T09:56:55.951Z,23.17
2022-12-15T10:00:21.118Z,25.50
2022-12-15T10:03:55.608Z,24.53
2022-12-15T10:07:13.850Z,25.27
2022-12-15T10:10:32.991Z,26.37
2022-12-15T10:13:51.796Z,25.87
2022-12-15T10:17:14.101Z,26.23
2022-12-15T10:20:28.711Z,24.60
2022-12-15T10:23:38.790Z,24.67
2022-12-15T10:26:58.394Z,25.97
2022-12-15T10:30:11.830Z,24.33
2022-12-15T10:33:24.224Z,26.07
2022-12-15T10:36:33.921Z,27.23
2022-12-15T10:39:46.166Z,24.17
2022-12-15T10:42:59.164Z,26.77
2022-12-15T10:46:15.277Z,21.03
2022-12-15T10:49:25.295Z,22.53
2022-12-15T10:52:38.353Z,20.57
2022-12-15T10:55:49.801Z,23.47
2022-12-15T10:59:02.794Z,21.30
2022-12-15T11:02:34.390Z,22.17
2022-12-15T11:05:53.720Z,20.47
2022-12-15T11:09:28.939Z,20.97
2022-12-15T11:12:58.219Z,21.87
2022-12-15T11:16:17.626Z,23.50
2022-12-15T11:19:39.657Z,24.70
2022-12-15T11:22:54.142Z,21.20
2022-12-15T11:26:36.783Z,21.90
2022-12-15T11:30:00.313Z,22.23
2022-12-15T11:33:10.838Z,19.93
2022-12-15T11:36:38.842Z,22.77
2022-12-15T11:40:13.160Z,21.43
2022-12-15T11:43:47.051Z,23.23
2022-12-15T11:47:16.890Z,18.57
2022-12-15T11:50:32.458Z,23.67
2022-12-15T11:54:15.545Z,19.20
2022-12-15T11:58:06.766Z,20.53
2022-12-15T12:01:54.017Z,18.90
2022-12-15T12:05:38.143Z,21.80
2022-12-15T12:09:20.394Z,20.80
2022-12-15T12:12:39.199Z,18.90
2022-12-15T12:15:58.660Z,20.70
2022-12-15T12:19:15.851Z,19.40
2022-12-15T12:22:31.499Z,22.80
2022-12-15T12:25:48.940Z,22.43
2022-12-15T12:29:07.683Z,20.93
2022-12-15T12:32:28.805Z,25.33
2022-12-15T12:35:47.542Z,27.07
2022-12-15T12:38:59.279Z,24.43
2022-12-15T12:42:17.942Z,23.90
2022-12-15T12:45:33.298Z,22.53
2022-12-15T12:48:49.289Z,23.13
2022-12-15T12:52:03.917Z,24.43
2022-12-15T12:55:29.384Z,27.63
2022-12-15T12:58:41.429Z,26.70
2022-12-15T13:01:50.443Z,23.33
2022-12-15T13:05:05.142Z,25.37
2022-12-15T13:08:53.356Z,24.87
2022-12-15T13:15:44.023Z,26.43
2022-12-15T13:19:04.566Z,30.23
2022-12-15T13:22:25.884Z,31.60
2022-12-15T13:25:53.723Z,29.60
2022-12-15T13:29:04.040Z,32.10
2022-12-15T13:32:30.704Z,29.07
2022-12-15T13:35:43.420Z,27.33
2022-12-15T13:38:56.814Z,28.00
2022-12-15T13:42:52.860Z,28.77
2022-12-15T13:46:16.003Z,28.90
2022-12-15T13:49:33.192Z,27.80
2022-12-15T13:56:50.777Z,31.60
2022-12-15T14:00:08.437Z,30.23
2022-12-15T14:03:23.919Z,34.70
2022-12-15T14:06:38.519Z,33.53
2022-12-15T14:09:51.947Z,30.37
2022-12-15T14:13:16.113Z,32.83
2022-12-15T14:16:27.570Z,34.70
2022-12-15T14:19:40.488Z,32.77
2022-12-15T14:22:50.537Z,35.50
2022-12-15T14:29:27.371Z,32.60
2022-12-15T14:32:38.222Z,30.20
2022-12-15T14:35:51.943Z,33.47
2022-12-15T14:39:04.900Z,33.13
2022-12-15T14:42:23.379Z,31.40
2022-12-15T14:45:33.812Z,33.83
2022-12-15T14:48:54.075Z,35.90
2022-12-15T14:52:07.115Z,34.57
2022-12-15T14:55:35.033Z,33.57
2022-12-15T14:58:43.354Z,33.27
2022-12-15T15:01:59.078Z,36.40
2022-12-15T15:03:07.288Z,24.17
2022-12-15T15:05:27.954Z,34.07
2022-12-15T15:08:44.333Z,30.93
2022-12-15T15:11:57.062Z,31.13
2022-12-15T15:15:09.101Z,32.23
2022-12-15T15:18:21.814Z,35.80
2022-12-15T15:21:36.875Z,36.93
2022-12-15T15:24:52.816Z,41.47
2022-12-15T15:28:16.330Z,39.63
2022-12-15T15:31:40.922Z,40.53
2022-12-15T15:34:51.091Z,39.83
2022-12-15T15:38:08.218Z,39.33
2022-12-15T15:41:19.846Z,42.17
2022-12-15T15:44:28.063Z,35.43
2022-12-15T15:47:36.787Z,37.07
2022-12-15T15:50:47.268Z,44.90
2022-12-15T15:54:02.625Z,36.60
2022-12-15T15:57:15.271Z,36.87
2022-12-15T16:00:26.925Z,33.23
2022-12-15T16:03:36.028Z,36.53
2022-12-15T16:06:47.607Z,34.67
2022-12-15T16:09:58.201Z,33.40
2022-12-15T16:13:06.590Z,37.67
2022-12-15T16:16:22.266Z,37.53
2022-12-15T16:19:33.806Z,35.23
2022-12-15T16:22:51.036Z,40.13
2022-12-15T16:26:01.368Z,37.37
2022-12-15T16:29:16.200Z,46.43
2022-12-15T16:32:24.876Z,50.20
2022-12-15T16:35:33.548Z,39.33
2022-12-15T16:38:45.123Z,43.17
2022-12-15T16:41:57.456Z,42.93
2022-12-15T16:45:16.999Z,38.83
2022-12-15T16:48:25.723Z,41.73
2022-12-15T16:51:40.690Z,45.23
2022-12-15T16:54:51.343Z,41.73
2022-12-15T16:58:06.077Z,49.37
2022-12-15T17:01:15.913Z,46.80
2022-12-15T17:04:27.113Z,45.40
2022-12-15T17:07:35.581Z,43.33
2022-12-15T17:10:45.430Z,47.10
2022-12-15T17:14:00.877Z,46.90
2022-12-15T17:17:16.074Z,42.47
2022-12-15T17:20:30.307Z,43.57
2022-12-15T17:23:41.166Z,49.67
2022-12-15T17:26:50.173Z,45.17
2022-12-15T17:30:02.955Z,44.47
2022-12-15T17:33:19.971Z,43.73
2022-12-15T17:36:30.084Z,45.07
2022-12-15T17:39:39.155Z,45.53
2022-12-15T17:42:48.732Z,41.60
2022-12-15T17:45:59.253Z,47.17
2022-12-15T17:49:08.107Z,45.00
2022-12-15T17:52:29.242Z,49.13
2022-12-15T17:55:38.113Z,51.43
2022-12-15T17:58:46.482Z,47.40
2022-12-15T18:01:57.441Z,54.00
2022-12-15T18:05:07.377Z,54.47
2022-12-15T18:08:20.828Z,55.43
2022-12-15T18:11:30.589Z,52.87
2022-12-15T18:14:39.166Z,46.73
2022-12-15T18:17:50.702Z,54.57
2022-12-15T18:21:03.775Z,49.73
2022-12-15T18:24:15.046Z,50.80
2022-12-15T18:27:26.586Z,43.57
2022-12-15T18:30:35.199Z,51.70
2022-12-15T18:33:46.406Z,46.37
2022-12-15T18:36:54.953Z,56.93
2022-12-15T18:40:05.182Z,48.70
2022-12-15T18:43:17.480Z,45.80
2022-12-15T18:46:26.516Z,46.10
2022-12-15T18:49:36.229Z,41.47
2022-12-15T18:52:45.165Z,50.40
2022-12-15T18:55:54.836Z,50.37
2022-12-15T18:59:18.337Z,46.97
2022-12-15T19:02:26.868Z,50.23
2022-12-15T19:05:38.244Z,46.00
2022-12-15T19:08:47.241Z,45.10
2022-12-15T19:12:13.034Z,48.40
2022-12-15T19:15:23.079Z,42.13
2022-12-15T19:18:49.067Z,47.10
2022-12-15T19:22:16.435Z,45.83
2022-12-15T19:25:30.153Z,51.07
2022-12-15T19:28:38.463Z,39.57
2022-12-15T19:31:47.575Z,44.83
2022-12-15T19:34:55.950Z,44.40
2022-12-15T19:38:06.758Z,44.33
2022-12-15T19:41:17.255Z,55.27
2022-12-15T19:44:27.424Z,47.83
2022-12-15T19:47:35.914Z,47.67
2022-12-15T19:50:44.753Z,39.50
2022-12-15T19:53:54.512Z,42.97
2022-12-15T19:57:02.995Z,46.77
2022-12-15T20:00:21.756Z,48.83
2022-12-15T20:03:34.093Z,42.70
2022-12-15T20:06:44.060Z,44.23
2022-12-15T20:09:53.904Z,40.43
2022-12-15T20:13:03.576Z,35.17
2022-12-15T20:16:17.479Z,37.40
2022-12-15T20:19:26.313Z,34.60
2022-12-15T20:22:34.977Z,31.60
2022-12-15T20:25:46.364Z,31.50
2022-12-15T20:28:55.349Z,28.67
2022-12-15T20:32:03.720Z,30.70
2022-12-15T20:35:19.552Z,27.30
2022-12-15T20:38:33.717Z,27.17
2022-12-15T20:41:43.513Z,25.30
2022-12-15T20:44:51.806Z,21.87
2022-12-15T20:48:02.958Z,24.73
2022-12-15T20:51:25.658Z,22.93
2022-12-15T20:54:34.555Z,22.50
2022-12-15T20:57:44.622Z,21.53
2022-12-15T21:00:54.793Z,25.83
2022-12-15T21:04:19.658Z,28.87
2022-12-15T21:07:28.101Z,24.30
2022-12-15T21:10:36.770Z,23.97
2022-12-15T21:13:49.446Z,19.93
2022-12-15T21:16:58.092Z,25.07
2022-12-15T21:20:07.801Z,22.37
2022-12-15T21:23:23.924Z,22.53
2022-12-15T21:26:32.430Z,25.93
2022-12-15T21:29:47.385Z,21.23
2022-12-15T21:32:58.836Z,22.93
2022-12-15T21:36:14.797Z,23.27
2022-12-15T21:39:29.608Z,21.27
2022-12-15T21:42:39.169Z,19.63
2022-12-15T21:45:49.745Z,20.57
2022-12-15T21:49:18.233Z,19.23
2022-12-15T21:52:30.340Z,27.60
2022-12-15T21:55:48.453Z,21.10
2022-12-15T21:58:59.640Z,20.47
2022-12-15T22:02:26.149Z,21.73
2022-12-15T22:05:34.564Z,22.87
2022-12-15T22:08:45.266Z,19.77
2022-12-15T22:11:57.500Z,21.83
2022-12-15T22:15:15.509Z,21.60
2022-12-15T22:18:25.179Z,21.80
2022-12-15T22:21:33.559Z,23.60
2022-12-15T22:24:42.228Z,21.60
2022-12-15T22:27:51.726Z,20.03
2022-12-15T22:31:02.811Z,20.67
2022-12-15T22:34:18.100Z,19.23
2022-12-15T22:37:26.353Z,23.27
2022-12-15T22:40:35.019Z,22.10
2022-12-15T22:43:47.625Z,17.50
2022-12-15T22:47:00.749Z,19.57
2022-12-15T22:50:19.787Z,18.80
2022-12-15T22:53:32.955Z,19.47
2022-12-15T22:56:42.647Z,21.00
2022-12-15T23:00:00.608Z,19.70
2022-12-15T23:03:13.515Z,18.70
2022-12-15T23:06:24.251Z,13.87
2022-12-15T23:09:32.614Z,18.20
2022-12-15T23:12:40.416Z,17.07
2022-12-15T23:16:06.865Z,14.97
2022-12-15T23:19:23.784Z,18.07
2022-12-15T23:22:33.634Z,14.73
2022-12-15T23:25:41.914Z,15.60
2022-12-15T23:28:50.387Z,14.40
2022-12-15T23:31:59.017Z,17.27
2022-12-15T23:35:08.412Z,13.60
2022-12-15T23:38:18.118Z,15.47
2022-12-15T23:41:27.479Z,16.50
2022-12-15T23:44:37.333Z,15.90
2022-12-15T23:47:46.051Z,15.53
2022-12-15T23:50:54.690Z,13.30
2022-12-15T23:54:04.592Z,16.67
2022-12-15T23:57:13.312Z,17.37
